Time;durP1;ratioP1;P1;durP2;ratioP2;P2;SDS_P1;SDS_P2;PMS_P1;PMS_P2;Temp;Humidity;BMP_temperature;BMP_pressure;BME280_temperature;BME280_humidity;BME280_pressure;Samples;Min_cycle;Max_cycle;Signal;HPM_P1;HPM_P2
2023/02/11 00:00:56;;;;;;;29.43;22.90;;;0.60;84.10;;;;;;5069715;28;20235;-85
2023/02/11 00:03:21;;;;;;;27.17;23.50;;;0.70;84.90;;;;;;5070117;28;20689;-84
2023/02/11 00:06:03;;;;;;;27.13;21.77;;;0.70;85.00;;;;;;5050222;28;20181;-85
2023/02/11 00:08:28;;;;;;;28.13;21.77;;;0.70;85.70;;;;;;5033001;28;20212;-85
2023/02/11 00:10:55;;;;;;;28.73;22.63;;;0.70;85.30;;;;;;5035198;28;20181;-85
2023/02/11 00:13:22;;;;;;;28.03;21.47;;;0.60;85.70;;;;;;5034465;28;20212;-85
2023/02/11 00:15:48;;;;;;;27.07;22.03;;;0.70;86.20;;;;;;5033524;28;20177;-85
2023/02/11 00:18:14;;;;;;;25.67;21.00;;;0.80;85.40;;;;;;5033754;28;20246;-85
2023/02/11 00:20:40;;;;;;;25.03;21.80;;;0.90;84.50;;;;;;5028183;28;20170;-85
2023/02/11 00:23:05;;;;;;;28.87;21.13;;;1.00;84.10;;;;;;5015115;28;20228;-84
2023/02/11 00:25:31;;;;;;;23.73;20.17;;;1.10;83.40;;;;;;5025649;28;20197;-85
2023/02/11 00:27:57;;;;;;;26.90;21.47;;;1.10;83.20;;;;;;5034793;28;20176;-83
2023/02/11 00:30:23;;;;;;;24.77;20.27;;;1.30;81.60;;;;;;5034983;28;20330;-82
2023/02/11 00:32:49;;;;;;;24.20;20.70;;;1.20;81.20;;;;;;5033247;28;20797;-85
2023/02/11 00:35:15;;;;;;;26.77;21.73;;;1.20;81.30;;;;;;5002463;28;20231;-85
2023/02/11 00:37:40;;;;;;;29.50;22.53;;;1.10;81.40;;;;;;5014954;28;20272;-86
2023/02/11 00:40:06;;;;;;;28.87;22.13;;;1.00;82.20;;;;;;5014814;28;20184;-85
2023/02/11 00:42:34;;;;;;;25.23;21.03;;;1.10;82.80;;;;;;5013482;28;20748;-85
2023/02/11 00:45:00;;;;;;;25.53;20.77;;;1.20;83.50;;;;;;5012179;28;20170;-85
2023/02/11 00:47:26;;;;;;;27.10;22.57;;;1.30;81.60;;;;;;5019249;28;20182;-86
2023/02/11 00:49:51;;;;;;;25.83;20.80;;;1.40;79.80;;;;;;5018725;28;20212;-85
2023/02/11 00:52:17;;;;;;;26.43;22.33;;;1.20;81.30;;;;;;5019524;28;20213;-85
2023/02/11 00:54:43;;;;;;;27.97;21.80;;;1.20;80.70;;;;;;5028212;28;20178;-84
2023/02/11 00:57:08;;;;;;;26.80;23.07;;;1.20;80.40;;;;;;5045974;28;20173;-85
2023/02/11 00:59:34;;;;;;;26.27;22.20;;;1.10;80.70;;;;;;5045398;28;20186;-85
2023/02/11 01:02:00;;;;;;;25.03;21.53;;;1.00;81.70;;;;;;5019371;28;20266;-85
2023/02/11 01:04:25;;;;;;;25.93;21.80;;;0.90;82.90;;;;;;5019740;28;20182;-85
2023/02/11 01:06:51;;;;;;;29.03;22.73;;;0.90;82.30;;;;;;5038939;28;20181;-85
2023/02/11 01:09:16;;;;;;;26.50;22.03;;;0.70;83.60;;;;;;5039388;28;20177;-86
2023/02/11 01:11:42;;;;;;;25.00;21.63;;;0.80;84.70;;;;;;5039686;28;20216;-85
2023/02/11 01:14:09;;;;;;;27.27;22.63;;;0.90;83.90;;;;;;5037951;28;20258;-85
2023/02/11 01:16:35;;;;;;;28.07;23.20;;;0.80;83.80;;;;;;5028268;28;20186;-86
2023/02/11 01:19:00;;;;;;;28.13;23.43;;;0.60;85.80;;;;;;5021872;28;20209;-85
2023/02/11 01:21:26;;;;;;;26.20;21.90;;;0.60;87.30;;;;;;5030630;28;20176;-85
2023/02/11 01:23:52;;;;;;;27.97;23.30;;;0.70;86.50;;;;;;5041502;28;20237;-86
2023/02/11 01:26:17;;;;;;;30.27;24.03;;;0.70;85.90;;;;;;5041850;28;20191;-85
2023/02/11 01:28:43;;;;;;;26.83;22.87;;;0.70;87.30;;;;;;5024767;28;20193;-84
2023/02/11 01:31:09;;;;;;;31.37;22.37;;;0.80;87.00;;;;;;5042744;28;20628;-85
2023/02/11 01:33:34;;;;;;;28.50;23.53;;;1.00;85.30;;;;;;5042810;28;20224;-85
2023/02/11 01:36:02;;;;;;;28.43;23.23;;;0.90;85.90;;;;;;5023756;28;20218;-84
2023/02/11 01:38:28;;;;;;;27.37;23.13;;;0.70;87.90;;;;;;5022154;28;20186;-85
2023/02/11 01:40:59;;;;;;;31.67;25.33;;;0.60;91.00;;;;;;5021809;28;20236;-86
2023/02/11 01:43:27;;;;;;;29.00;24.20;;;0.70;92.00;;;;;;5042492;28;20197;-85
2023/02/11 01:45:58;;;;;;;27.20;23.57;;;0.80;89.60;;;;;;5050988;28;20735;-85
2023/02/11 01:48:32;;;;;;;26.87;22.70;;;0.80;89.10;;;;;;5045037;28;20165;-86
2023/02/11 01:51:07;;;;;;;31.90;23.33;;;0.90;89.30;;;;;;5043966;28;20604;-85
2023/02/11 01:59:10;;;;;;;25.67;21.50;;;1.20;86.40;;;;;;5049715;28;20329;-86
2023/02/11 02:01:38;;;;;;;26.77;21.83;;;1.30;86.80;;;;;;5023710;28;20192;-85
2023/02/11 02:04:05;;;;;;;24.23;20.40;;;1.30;86.10;;;;;;5033297;28;20204;-86
2023/02/11 02:06:42;;;;;;;28.10;21.63;;;1.30;86.00;;;;;;5027733;28;20181;-85
2023/02/11 02:09:15;;;;;;;25.73;21.50;;;1.30;85.40;;;;;;5017779;28;20209;-86
2023/02/11 02:11:41;;;;;;;29.50;21.47;;;1.30;85.80;;;;;;5026736;28;20661;-85
2023/02/11 02:14:06;;;;;;;25.67;21.23;;;1.30;86.30;;;;;;5023409;28;20746;-85
2023/02/11 02:16:36;;;;;;;26.13;21.07;;;1.30;85.80;;;;;;5019248;28;20201;-86
2023/02/11 02:19:22;;;;;;;24.60;20.83;;;1.30;86.00;;;;;;5019913;28;20180;-85
2023/02/11 02:21:59;;;;;;;26.07;22.13;;;1.30;85.60;;;;;;4969567;28;20237;-85
2023/02/11 02:24:31;;;;;;;28.60;22.67;;;1.10;87.50;;;;;;5003177;28;20200;-85
2023/02/11 02:27:18;;;;;;;28.30;22.17;;;1.00;87.90;;;;;;5038325;28;20197;-85
2023/02/11 02:30:08;;;;;;;26.13;20.43;;;1.00;87.10;;;;;;5049930;28;20203;-85
2023/02/11 02:32:54;;;;;;;24.63;20.97;;;1.10;86.60;;;;;;5037720;28;20209;-85
2023/02/11 02:35:32;;;;;;;25.60;20.93;;;1.10;86.90;;;;;;5022347;28;20229;-84
2023/02/11 02:38:12;;;;;;;23.97;20.17;;;1.20;86.20;;;;;;4997748;28;20209;-85
2023/02/11 02:41:02;;;;;;;27.00;22.13;;;1.20;85.60;;;;;;5014348;28;20244;-85
2023/02/11 02:43:30;;;;;;;25.60;20.70;;;1.30;85.20;;;;;;5013806;28;20725;-85
2023/02/11 02:46:11;;;;;;;28.23;22.43;;;1.30;86.20;;;;;;5012837;28;20637;-84
2023/02/11 02:48:36;;;;;;;27.27;22.07;;;1.10;85.80;;;;;;5013521;28;20170;-85
2023/02/11 02:51:05;;;;;;;25.13;22.43;;;0.90;88.50;;;;;;5014647;28;20235;-85
2023/02/11 02:53:50;;;;;;;30.37;24.57;;;0.50;91.20;;;;;;5012860;28;20343;-85
2023/02/11 02:56:49;;;;;;;28.50;23.40;;;0.40;92.70;;;;;;5020843;28;20193;-85
2023/02/11 02:59:23;;;;;;;30.80;24.87;;;0.40;94.10;;;;;;5037826;28;20264;-85
2023/02/11 03:02:01;;;;;;;27.53;23.43;;;0.40;94.00;;;;;;5029177;28;20204;-86
2023/02/11 03:04:36;;;;;;;28.80;24.50;;;0.30;94.80;;;;;;5029210;28;20197;-85
2023/02/11 03:07:11;;;;;;;31.30;25.40;;;0.30;94.60;;;;;;5022846;28;20218;-85
2023/02/11 03:09:53;;;;;;;31.27;25.50;;;0.20;95.30;;;;;;5029433;28;20251;-86
2023/02/11 03:12:20;;;;;;;28.37;23.63;;;0.20;95.90;;;;;;5038600;28;20213;-85
2023/02/11 03:14:50;;;;;;;31.57;24.40;;;0.30;95.10;;;;;;5035707;28;20169;-85
2023/02/11 03:17:15;;;;;;;31.20;25.00;;;0.20;95.60;;;;;;5037762;28;20193;-85
2023/02/11 03:19:44;;;;;;;28.03;23.33;;;0.20;96.30;;;;;;5038200;28;20204;-85
2023/02/11 03:22:24;;;;;;;30.20;23.63;;;0.20;96.10;;;;;;5021864;28;20226;-85
2023/02/11 03:24:49;;;;;;;29.30;23.77;;;0.30;95.90;;;;;;5018078;28;20180;-85
2023/02/11 03:27:20;;;;;;;29.07;24.40;;;0.30;95.30;;;;;;5018706;28;20241;-84
2023/02/11 03:30:12;;;;;;;30.10;23.33;;;0.30;95.50;;;;;;5019210;28;20185;-85
2023/02/11 03:32:42;;;;;;;29.73;24.03;;;0.30;95.90;;;;;;5023863;28;20217;-85
2023/02/11 03:35:16;;;;;;;31.63;24.23;;;0.30;95.00;;;;;;5045195;28;20180;-85
2023/02/11 03:37:42;;;;;;;29.50;23.67;;;0.20;96.20;;;;;;5053990;28;20152;-85
2023/02/11 03:40:15;;;;;;;28.07;22.63;;;0.20;96.20;;;;;;5046530;28;20263;-86
2023/02/11 03:42:58;;;;;;;31.93;24.53;;;0.20;96.50;;;;;;5036013;28;20200;-84
2023/02/11 03:45:25;;;;;;;29.07;22.93;;;0.30;95.80;;;;;;5034593;28;20185;-83
2023/02/11 03:47:56;;;;;;;27.03;23.10;;;0.30;95.70;;;;;;5037345;28;20639;-83
2023/02/11 03:50:23;;;;;;;27.30;21.83;;;0.30;95.20;;;;;;5023092;28;20508;-84
2023/02/11 03:52:49;;;;;;;29.37;22.50;;;0.20;96.30;;;;;;5015284;28;20431;-82
2023/02/11 03:55:18;;;;;;;27.27;21.97;;;0.30;96.80;;;;;;5015089;28;20176;-83
2023/02/11 03:57:43;;;;;;;26.63;22.07;;;0.30;96.10;;;;;;5015568;28;20182;-85
2023/02/11 04:00:10;;;;;;;27.10;23.83;;;0.30;96.10;;;;;;5015747;28;20185;-84
2023/02/11 04:02:38;;;;;;;27.80;23.17;;;0.40;95.40;;;;;;5020154;28;20213;-85
2023/02/11 04:05:06;;;;;;;27.40;23.00;;;0.30;97.10;;;;;;5036612;28;20201;-84
2023/02/11 04:07:32;;;;;;;26.33;21.30;;;0.30;96.30;;;;;;5018322;28;20213;-84
2023/02/11 04:09:58;;;;;;;26.60;22.70;;;0.20;96.60;;;;;;5016194;28;20181;-84
2023/02/11 04:12:23;;;;;;;28.07;22.40;;;0.20;97.40;;;;;;5015134;28;20718;-83
2023/02/11 04:14:49;;;;;;;28.33;22.57;;;0.20;97.60;;;;;;5013121;28;20706;-83
2023/02/11 04:17:15;;;;;;;27.67;22.00;;;0.40;96.40;;;;;;5020435;28;20182;-83
2023/02/11 04:19:40;;;;;;;29.07;22.77;;;0.40;95.70;;;;;;5021363;28;20182;-86
2023/02/11 04:22:06;;;;;;;26.60;22.33;;;0.40;96.00;;;;;;5020137;28;20231;-85
2023/02/11 04:24:32;;;;;;;28.67;22.63;;;0.40;96.10;;;;;;5021400;28;20189;-84
2023/02/11 04:26:58;;;;;;;30.23;23.47;;;0.40;95.60;;;;;;5020301;28;20227;-84
2023/02/11 04:29:24;;;;;;;28.23;23.67;;;0.40;96.00;;;;;;5020039;28;20180;-86
2023/02/11 04:31:50;;;;;;;29.20;24.37;;;0.30;96.30;;;;;;5018860;28;20201;-86
2023/02/11 04:34:16;;;;;;;28.37;22.90;;;0.30;97.20;;;;;;5023394;28;20753;-86
2023/02/11 04:36:41;;;;;;;29.93;23.23;;;0.40;96.50;;;;;;5038522;28;20208;-86
2023/02/11 04:39:07;;;;;;;26.73;22.37;;;0.40;96.50;;;;;;5039419;28;20188;-86
2023/02/11 04:41:33;;;;;;;29.60;23.17;;;0.50;96.60;;;;;;5027166;28;20189;-85
2023/02/11 04:43:58;;;;;;;27.60;22.80;;;0.40;97.10;;;;;;5019280;28;20181;-83
2023/02/11 04:46:24;;;;;;;27.20;22.57;;;0.40;97.20;;;;;;5018913;28;20186;-84
2023/02/11 04:48:49;;;;;;;30.00;24.50;;;0.40;97.20;;;;;;5018966;28;20228;-84
2023/02/11 04:51:15;;;;;;;28.43;23.67;;;0.40;96.80;;;;;;5018444;28;20178;-84
2023/02/11 04:53:41;;;;;;;29.03;24.50;;;0.40;97.10;;;;;;5017763;28;20222;-84
2023/02/11 04:56:06;;;;;;;30.87;23.97;;;0.30;97.80;;;;;;5024939;28;20188;-83
2023/02/11 04:58:32;;;;;;;31.20;25.23;;;0.20;98.50;;;;;;5036915;28;20189;-83
2023/02/11 05:01:13;;;;;;;31.63;24.87;;;0.20;98.90;;;;;;5028063;28;20169;-83
2023/02/11 05:03:39;;;;;;;27.70;23.90;;;0.10;99.50;;;;;;5017837;28;20201;-83
2023/02/11 05:06:05;;;;;;;33.60;23.57;;;0.00;99.90;;;;;;5029478;28;20689;-84
2023/02/11 05:08:31;;;;;;;29.27;24.33;;;0.00;99.90;;;;;;5037301;28;20200;-84
2023/02/11 05:10:57;;;;;;;34.73;24.40;;;0.20;99.40;;;;;;5036604;28;20737;-83
2023/02/11 05:13:23;;;;;;;28.00;23.23;;;0.10;99.90;;;;;;5035895;28;20641;-83
2023/02/11 05:15:49;;;;;;;31.20;23.83;;;0.00;99.90;;;;;;5020898;28;20200;-83
2023/02/11 05:18:14;;;;;;;29.17;23.63;;;0.00;99.90;;;;;;4997111;28;20228;-83
2023/02/11 05:20:41;;;;;;;31.00;25.43;;;-0.10;99.90;;;;;;5012766;28;20174;-83
2023/02/11 05:23:07;;;;;;;27.27;22.77;;;-0.10;99.90;;;;;;5012931;28;20283;-83
2023/02/11 05:25:33;;;;;;;29.30;23.70;;;0.00;99.90;;;;;;5016208;28;20177;-83
2023/02/11 05:27:58;;;;;;;25.13;22.40;;;0.00;99.90;;;;;;5023042;28;20185;-83
2023/02/11 05:30:24;;;;;;;27.83;21.83;;;0.00;99.90;;;;;;5036250;28;20690;-84
2023/02/11 05:32:50;;;;;;;28.57;22.77;;;0.00;99.70;;;;;;5036792;28;20209;-84
2023/02/11 05:35:16;;;;;;;29.30;21.97;;;0.10;99.00;;;;;;5024226;28;20212;-83
2023/02/11 05:37:42;;;;;;;27.37;22.67;;;0.10;98.50;;;;;;5018239;28;20446;-83
2023/02/11 05:40:08;;;;;;;29.37;23.07;;;0.00;99.00;;;;;;5026720;28;20208;-83
2023/02/11 05:42:34;;;;;;;28.40;22.90;;;0.00;99.70;;;;;;5020396;28;20224;-84
2023/02/11 05:45:00;;;;;;;25.10;21.07;;;0.10;98.70;;;;;;5024520;28;20196;-84
2023/02/11 05:47:26;;;;;;;28.97;21.17;;;0.20;97.80;;;;;;5038326;28;20193;-84
2023/02/11 05:49:52;;;;;;;27.27;22.27;;;0.30;97.60;;;;;;5038438;28;20185;-84
2023/02/11 05:52:18;;;;;;;27.10;21.53;;;0.20;97.80;;;;;;5038004;28;20238;-84
2023/02/11 05:54:44;;;;;;;27.17;21.30;;;0.20;97.80;;;;;;5034621;28;20283;-85
2023/02/11 05:57:10;;;;;;;26.77;20.60;;;0.10;98.40;;;;;;5039068;28;20266;-84
2023/02/11 05:59:35;;;;;;;26.97;21.50;;;0.30;97.20;;;;;;5021698;28;20193;-83
2023/02/11 06:02:01;;;;;;;27.30;21.77;;;0.40;96.70;;;;;;5039881;28;20204;-84
2023/02/11 06:04:26;;;;;;;27.73;21.40;;;0.30;96.90;;;;;;5041063;28;20186;-84
2023/02/11 06:06:52;;;;;;;27.53;21.07;;;0.30;96.60;;;;;;5020119;28;20177;-84
2023/02/11 06:09:18;;;;;;;25.67;21.53;;;0.30;96.20;;;;;;5020737;28;20216;-84
2023/02/11 06:11:43;;;;;;;26.13;21.50;;;0.20;97.30;;;;;;5020478;28;20237;-84
2023/02/11 06:14:09;;;;;;;31.73;26.33;;;0.30;96.20;;;;;;5019921;28;20695;-83
2023/02/11 06:16:35;;;;;;;24.17;20.77;;;0.50;95.30;;;;;;5020365;28;20181;-84
2023/02/11 06:19:01;;;;;;;28.13;21.50;;;0.50;95.60;;;;;;5021363;28;20181;-84
2023/02/11 06:21:27;;;;;;;26.23;20.57;;;0.60;94.40;;;;;;5020536;28;20257;-85
2023/02/11 06:23:52;;;;;;;27.13;20.67;;;0.60;94.50;;;;;;5019776;28;20173;-85
2023/02/11 06:26:20;;;;;;;26.27;21.97;;;0.60;94.40;;;;;;5017399;28;20193;-84
2023/02/11 06:28:46;;;;;;;29.70;22.90;;;0.50;94.80;;;;;;5015837;28;20208;-84
2023/02/11 06:31:12;;;;;;;27.50;21.53;;;0.40;96.10;;;;;;5014138;28;20178;-85
2023/02/11 06:33:38;;;;;;;28.47;22.87;;;0.40;96.90;;;;;;5016701;28;20240;-84
2023/02/11 06:36:10;;;;;;;32.07;23.03;;;0.30;97.20;;;;;;4999248;28;20607;-83
2023/02/11 06:38:36;;;;;;;30.63;24.47;;;0.30;97.70;;;;;;5019900;28;20170;-84
2023/02/11 06:41:02;;;;;;;30.13;24.53;;;0.10;98.70;;;;;;5023216;28;20252;-85
2023/02/11 06:43:27;;;;;;;31.70;24.80;;;0.10;99.90;;;;;;5030937;28;20201;-84
2023/02/11 06:45:54;;;;;;;30.03;23.17;;;0.10;99.30;;;;;;5030614;28;20190;-84
2023/02/11 06:48:21;;;;;;;28.27;23.47;;;0.20;98.70;;;;;;5027564;28;20193;-84
2023/02/11 06:50:47;;;;;;;29.97;23.10;;;0.20;98.60;;;;;;5024919;28;20189;-82
2023/02/11 06:53:12;;;;;;;32.20;24.40;;;0.30;98.70;;;;;;5034239;28;20239;-84
2023/02/11 06:55:38;;;;;;;28.67;23.80;;;0.30;98.70;;;;;;5026174;28;20208;-84
2023/02/11 06:58:04;;;;;;;34.00;24.60;;;0.10;99.70;;;;;;5034816;28;20718;-83
2023/02/11 07:00:29;;;;;;;28.37;25.23;;;0.00;99.90;;;;;;5026910;28;20388;-84
2023/02/11 07:02:55;;;;;;;30.40;24.97;;;0.20;99.90;;;;;;5024880;28;20215;-85
2023/02/11 07:05:21;;;;;;;32.30;25.80;;;0.30;99.50;;;;;;5025498;28;20181;-84
2023/02/11 07:07:47;;;;;;;38.57;27.90;;;0.20;99.90;;;;;;5025880;28;20216;-85
2023/02/11 07:10:12;;;;;;;32.33;26.37;;;0.10;99.90;;;;;;5024462;28;20193;-84
2023/02/11 07:12:38;;;;;;;34.83;28.10;;;0.00;99.90;;;;;;5024647;28;20264;-84
2023/02/11 07:15:04;;;;;;;33.57;27.30;;;0.10;99.90;;;;;;5030728;28;20213;-84
2023/02/11 07:17:30;;;;;;;34.40;28.40;;;0.00;99.90;;;;;;5011474;28;20238;-83
2023/02/11 07:19:56;;;;;;;36.37;29.47;;;0.00;99.90;;;;;;5030958;28;20746;-85
2023/02/11 07:22:21;;;;;;;38.73;30.97;;;0.10;99.90;;;;;;5005371;28;20216;-84
2023/02/11 07:24:48;;;;;;;38.00;28.63;;;0.00;99.90;;;;;;5027788;28;20780;-85
2023/02/11 07:27:13;;;;;;;36.60;28.97;;;0.10;99.90;;;;;;5021061;28;20186;-87
2023/02/11 07:29:41;;;;;;;42.03;30.60;;;0.10;99.90;;;;;;5004917;28;20192;-85
2023/02/11 07:32:06;;;;;;;39.13;29.63;;;0.10;99.90;;;;;;5033948;28;20231;-85
2023/02/11 07:34:32;;;;;;;37.67;30.70;;;0.20;99.90;;;;;;5034199;28;20189;-82
2023/02/11 07:36:58;;;;;;;34.60;28.83;;;0.30;99.90;;;;;;5020974;28;20201;-84
2023/02/11 07:39:26;;;;;;;38.90;29.67;;;0.50;99.90;;;;;;5009847;28;20224;-84
2023/02/11 07:41:52;;;;;;;43.37;32.93;;;0.40;99.90;;;;;;5028039;28;20209;-85
2023/02/11 07:44:18;;;;;;;35.30;29.07;;;0.30;99.90;;;;;;5028610;28;20177;-85
2023/02/11 07:46:44;;;;;;;37.03;30.50;;;0.30;99.90;;;;;;5028401;28;20200;-85
2023/02/11 07:49:11;;;;;;;35.80;30.20;;;0.40;99.90;;;;;;5017651;28;20216;-85
2023/02/11 07:51:39;;;;;;;43.27;32.40;;;0.40;99.90;;;;;;5022558;28;20184;-84
2023/02/11 07:54:05;;;;;;;36.23;29.87;;;0.40;99.90;;;;;;5029366;28;20212;-85
2023/02/11 07:56:32;;;;;;;39.13;31.07;;;0.50;99.90;;;;;;5037199;28;20195;-85
2023/02/11 07:59:02;;;;;;;35.83;32.00;;;0.50;99.90;;;;;;5028683;28;20181;-85
2023/02/11 08:01:28;;;;;;;40.47;30.83;;;0.60;99.90;;;;;;5011022;28;20278;-85
2023/02/11 08:03:59;;;;;;;39.07;31.33;;;0.50;99.90;;;;;;5017899;28;20198;-85
2023/02/11 08:06:27;;;;;;;38.33;30.40;;;0.40;99.90;;;;;;4996593;28;20178;-86
2023/02/11 08:08:53;;;;;;;44.63;32.33;;;0.40;99.90;;;;;;5018924;28;20173;-86
2023/02/11 08:11:23;;;;;;;38.57;31.57;;;0.30;99.90;;;;;;5019504;28;20181;-86
2023/02/11 08:13:50;;;;;;;43.57;33.97;;;0.30;99.90;;;;;;5025011;28;20286;-85
2023/02/11 08:16:26;;;;;;;38.33;31.73;;;0.30;99.90;;;;;;5015124;28;20178;-84
2023/02/11 08:18:56;;;;;;;44.13;34.37;;;0.30;99.90;;;;;;5018471;28;20171;-84
2023/02/11 08:21:22;;;;;;;40.80;33.83;;;0.30;99.90;;;;;;5022423;28;20189;-82
2023/02/11 08:23:48;;;;;;;37.47;31.13;;;0.30;99.90;;;;;;5026580;28;20204;-86
2023/02/11 08:26:19;;;;;;;43.17;31.77;;;0.30;99.90;;;;;;5019222;28;20258;-86
2023/02/11 08:28:47;;;;;;;41.63;33.27;;;0.30;99.90;;;;;;5029557;28;20280;-87
2023/02/11 08:31:18;;;;;;;41.30;31.87;;;0.30;99.90;;;;;;5030491;28;20192;-83
2023/02/11 08:33:44;;;;;;;40.73;30.67;;;0.30;99.90;;;;;;5022577;28;20772;-84
2023/02/11 08:36:13;;;;;;;38.40;31.50;;;0.40;99.90;;;;;;4997032;28;20276;-87
2023/02/11 08:38:39;;;;;;;40.17;32.13;;;0.30;99.90;;;;;;5003833;28;20247;-86
2023/02/11 08:41:05;;;;;;;42.07;31.67;;;0.30;99.90;;;;;;5022121;28;20177;-87
2023/02/11 08:43:32;;;;;;;37.00;30.27;;;0.40;99.90;;;;;;5022597;28;20220;-86
2023/02/11 08:45:58;;;;;;;36.30;31.13;;;0.40;99.90;;;;;;5002498;28;20181;-87
2023/02/11 08:48:23;;;;;;;42.07;31.37;;;0.60;99.90;;;;;;5014826;28;20742;-86
2023/02/11 08:50:49;;;;;;;38.27;31.20;;;0.60;99.80;;;;;;5035806;28;20185;-86
2023/02/11 08:53:15;;;;;;;38.57;29.87;;;0.60;99.90;;;;;;5035685;28;20209;-87
2023/02/11 08:55:48;;;;;;;35.87;28.50;;;0.70;99.90;;;;;;5021888;28;20566;-87
2023/02/11 08:58:13;;;;;;;38.00;30.70;;;0.90;98.30;;;;;;5054593;28;20157;-87
2023/02/11 09:00:39;;;;;;;33.73;29.07;;;0.80;97.60;;;;;;5053744;28;20267;-86
2023/02/11 09:03:04;;;;;;;35.40;28.83;;;0.90;98.10;;;;;;5051413;28;20200;-86
2023/02/11 09:05:30;;;;;;;34.50;28.47;;;1.00;96.40;;;;;;5028371;28;20173;-86
2023/02/11 09:07:56;;;;;;;37.10;29.33;;;1.10;96.80;;;;;;5015552;28;20670;-86
2023/02/11 09:10:21;;;;;;;35.73;28.87;;;1.10;95.80;;;;;;5016576;28;20216;-87
2023/02/11 09:12:47;;;;;;;33.83;26.90;;;1.20;95.00;;;;;;5016550;28;20293;-87
2023/02/11 09:15:12;;;;;;;36.40;28.13;;;1.40;94.10;;;;;;5015867;28;20181;-88
2023/02/11 09:17:38;;;;;;;34.40;27.53;;;1.50;94.00;;;;;;5016501;28;20200;-87
2023/02/11 09:20:04;;;;;;;39.43;28.10;;;1.60;93.00;;;;;;5021898;28;20208;-87
2023/02/11 09:22:30;;;;;;;38.27;29.60;;;1.60;91.90;;;;;;5017366;28;20226;-87
2023/02/11 09:24:55;;;;;;;39.37;27.67;;;1.80;90.80;;;;;;4997966;28;20376;-87
2023/02/11 09:27:21;;;;;;;36.50;28.13;;;1.90;89.70;;;;;;5019285;28;20189;-87
2023/02/11 09:29:47;;;;;;;34.77;28.57;;;1.90;88.50;;;;;;5019130;28;20194;-88
2023/02/11 09:32:12;;;;;;;33.20;27.17;;;2.20;87.60;;;;;;5015864;28;20204;-87
2023/02/11 09:34:38;;;;;;;33.97;27.37;;;2.30;86.10;;;;;;5028078;28;20237;-85
2023/02/11 09:37:03;;;;;;;31.83;27.10;;;2.40;86.50;;;;;;5017405;28;20700;-87
2023/02/11 09:39:29;;;;;;;34.70;26.90;;;2.50;84.90;;;;;;5000537;28;20228;-88
2023/02/11 09:42:01;;;;;;;32.60;26.50;;;2.40;86.10;;;;;;5023543;28;20185;-85
2023/02/11 09:44:31;;;;;;;37.70;27.53;;;2.60;85.40;;;;;;5032071;28;20686;-83
2023/02/11 09:47:16;;;;;;;33.23;26.57;;;2.90;83.90;;;;;;5005337;28;20209;-84
2023/02/11 09:49:47;;;;;;;32.17;27.80;;;2.90;84.90;;;;;;5023729;28;20185;-84
2023/02/11 09:52:25;;;;;;;32.30;25.90;;;3.20;82.80;;;;;;5024109;28;20742;-86
2023/02/11 09:54:59;;;;;;;32.37;26.10;;;3.40;80.50;;;;;;5015146;28;20213;-85
2023/02/11 09:57:32;;;;;;;36.50;26.47;;;3.50;79.90;;;;;;5027854;28;20179;-86
2023/02/11 09:59:58;;;;;;;32.93;26.00;;;3.80;79.10;;;;;;5033031;28;20191;-83
2023/02/11 10:02:47;;;;;;;30.00;25.20;;;4.20;77.80;;;;;;5018348;28;20233;-81
2023/02/11 10:05:20;;;;;;;33.77;25.00;;;4.40;74.50;;;;;;5024935;28;20695;-86
2023/02/11 10:08:08;;;;;;;29.13;23.83;;;4.50;74.00;;;;;;5042953;28;20237;-87
2023/02/11 10:10:40;;;;;;;31.30;27.77;;;4.30;75.20;;;;;;5037649;28;20232;-84
2023/02/11 10:13:24;;;;;;;33.63;24.90;;;4.50;74.40;;;;;;5029904;28;20216;-80
2023/02/11 10:16:17;;;;;;;28.23;23.80;;;4.60;74.50;;;;;;5016480;28;20235;-86
2023/02/11 10:19:06;;;;;;;30.30;23.97;;;4.60;73.60;;;;;;5039714;28;20249;-83
2023/02/11 10:21:40;;;;;;;26.43;22.60;;;4.50;73.50;;;;;;5037119;28;20173;-83
2023/02/11 10:24:11;;;;;;;27.93;22.87;;;4.50;73.90;;;;;;5031289;28;20203;-84
2023/02/11 10:26:38;;;;;;;26.70;22.33;;;4.40;74.30;;;;;;5035792;28;20447;-83
2023/02/11 10:29:35;;;;;;;30.17;23.77;;;4.30;74.50;;;;;;5035093;28;20181;-84
2023/02/11 10:32:03;;;;;;;28.10;22.87;;;4.40;75.30;;;;;;5026801;28;20276;-84
2023/02/11 10:34:29;;;;;;;26.53;22.50;;;4.50;74.60;;;;;;5030105;28;20190;-85
2023/02/11 10:36:55;;;;;;;25.40;22.33;;;4.60;73.80;;;;;;5028230;28;20316;-85
2023/02/11 10:39:25;;;;;;;27.07;23.27;;;4.60;74.40;;;;;;5034461;28;20193;-87
2023/02/11 10:42:11;;;;;;;30.27;24.73;;;4.90;71.70;;;;;;5043541;28;20226;-85
2023/02/11 10:44:40;;;;;;;28.90;23.40;;;4.80;72.10;;;;;;5041581;28;20200;-85
2023/02/11 10:47:22;;;;;;;30.73;24.53;;;4.70;71.60;;;;;;5041367;28;20196;-83
2023/02/11 10:49:48;;;;;;;29.30;24.30;;;4.50;73.90;;;;;;5043994;28;20213;-85
2023/02/11 10:52:26;;;;;;;25.37;22.20;;;4.70;72.80;;;;;;5043543;28;20224;-84
2023/02/11 10:55:01;;;;;;;28.93;24.50;;;5.10;70.80;;;;;;5043115;28;20273;-85
2023/02/11 10:57:34;;;;;;;29.03;23.83;;;5.10;72.30;;;;;;5059799;28;20256;-88
2023/02/11 11:00:35;;;;;;;25.30;21.53;;;5.20;71.10;;;;;;5064648;28;20179;-86
2023/02/11 11:03:02;;;;;;;27.30;21.73;;;5.50;70.40;;;;;;5057534;28;20188;-84
2023/02/11 11:05:35;;;;;;;25.27;20.70;;;6.00;69.00;;;;;;5031602;28;20186;-83
2023/02/11 11:08:08;;;;;;;30.33;21.73;;;6.10;67.80;;;;;;5027931;28;20173;-86
2023/02/11 11:10:34;;;;;;;23.47;20.67;;;6.40;65.90;;;;;;5040849;28;20177;-89
2023/02/11 11:13:00;;;;;;;23.33;19.70;;;6.70;65.80;;;;;;5016600;28;20214;-87
2023/02/11 11:15:28;;;;;;;23.47;20.43;;;7.00;63.50;;;;;;5164988;22;20609;-84
2023/02/11 11:18:13;;;;;;;23.57;18.93;;;7.10;62.70;;;;;;5053538;28;20203;-85
2023/02/11 11:20:57;;;;;;;24.33;19.07;;;7.20;61.70;;;;;;5051611;28;20174;-92
2023/02/11 11:23:23;;;;;;;23.63;18.03;;;7.30;61.30;;;;;;5048612;28;20168;-88
2023/02/11 11:26:07;;;;;;;23.67;17.27;;;7.40;62.60;;;;;;5033173;28;20691;-89
2023/02/11 11:28:40;;;;;;;21.83;17.73;;;7.20;61.80;;;;;;5015542;28;20185;-89
2023/02/11 11:31:18;;;;;;;22.77;17.57;;;7.10;63.00;;;;;;5011814;28;20227;-90
2023/02/11 11:33:45;;;;;;;21.20;17.77;;;7.20;63.90;;;;;;5027797;28;20232;-88
2023/02/11 11:36:13;;;;;;;18.70;16.70;;;7.30;62.40;;;;;;5027699;28;20203;-88
2023/02/11 11:39:10;;;;;;;18.60;16.50;;;7.50;61.90;;;;;;5027390;28;20178;-88
2023/02/11 11:41:35;;;;;;;20.70;17.87;;;7.80;60.30;;;;;;4994818;28;20687;-90
2023/02/11 11:44:23;;;;;;;18.60;16.60;;;8.30;60.60;;;;;;5012427;28;20177;-90
2023/02/11 11:47:11;;;;;;;21.57;17.20;;;8.00;62.30;;;;;;5025932;28;20239;-89
2023/02/11 11:49:47;;;;;;;19.53;16.93;;;8.10;60.70;;;;;;5028398;28;20635;-90
2023/02/11 11:52:34;;;;;;;21.63;16.57;;;8.00;62.10;;;;;;5029717;28;20641;-90
2023/02/11 11:55:21;;;;;;;20.73;17.20;;;8.30;60.10;;;;;;5029556;28;20598;-90
2023/02/11 11:57:47;;;;;;;20.27;17.87;;;8.50;61.00;;;;;;5021279;28;20259;-88
2023/02/11 12:00:19;;;;;;;21.33;17.07;;;8.30;61.10;;;;;;5020435;28;20703;-89
2023/02/11 12:02:51;;;;;;;21.80;19.17;;;8.40;60.70;;;;;;5024411;28;20177;-89
2023/02/11 12:05:27;;;;;;;23.20;18.10;;;8.80;59.20;;;;;;5022275;28;20207;-88
2023/02/11 12:08:22;;;;;;;20.93;17.60;;;8.90;58.20;;;;;;5031825;28;20195;-90
2023/02/11 12:10:53;;;;;;;22.37;17.53;;;9.10;57.50;;;;;;5019345;28;20587;-89
2023/02/11 12:13:41;;;;;;;19.43;17.20;;;9.10;59.30;;;;;;5010012;28;20205;-91
2023/02/11 12:16:20;;;;;;;23.27;17.87;;;9.40;56.90;;;;;;5028718;28;20235;-90
2023/02/11 12:19:06;;;;;;;20.30;18.13;;;9.80;55.50;;;;;;5026263;28;20538;-90
2023/02/11 12:22:01;;;;;;;18.53;16.63;;;9.80;56.70;;;;;;5028007;28;20199;-89
2023/02/11 12:24:59;;;;;;;23.13;19.63;;;10.00;54.90;;;;;;5028809;28;20201;-88
2023/02/11 12:27:42;;;;;;;23.47;18.50;;;10.10;55.20;;;;;;4998266;28;20196;-88
2023/02/11 12:30:20;;;;;;;21.53;18.53;;;10.20;55.00;;;;;;5022882;28;20185;-87
2023/02/11 12:33:25;;;;;;;27.47;19.20;;;10.20;55.70;;;;;;5014994;28;20200;-87
2023/02/11 12:36:11;;;;;;;24.37;21.87;;;10.40;54.20;;;;;;4997040;28;20212;-88
2023/02/11 12:38:47;;;;;;;23.27;18.63;;;10.20;56.10;;;;;;5033430;28;20184;-87
2023/02/11 12:44:39;;;;;;;22.70;18.57;;;10.50;55.10;;;;;;5034798;28;20212;-87
2023/02/11 12:47:23;;;;;;;20.73;18.53;;;10.70;54.50;;;;;;5033386;28;20377;-87
2023/02/11 12:50:10;;;;;;;20.60;18.50;;;10.60;55.00;;;;;;5033681;28;20188;-88
2023/02/11 12:52:42;;;;;;;20.13;18.17;;;10.80;53.90;;;;;;5033081;28;20192;-89
2023/02/11 12:55:22;;;;;;;19.40;17.57;;;11.30;52.20;;;;;;5032631;28;20376;-87
2023/02/11 12:57:49;;;;;;;20.67;18.57;;;11.10;53.30;;;;;;5015928;28;20181;-88
2023/02/11 13:00:16;;;;;;;21.37;19.20;;;10.80;53.70;;;;;;5013571;28;20196;-87